sensor_id;sensor_type;location;lat;lon;timestamp;P1;durP1;ratioP1;P2;durP2;ratioP2
51814;SDS011;37874;53.158;6.766;2022-10-26T00:01:30;2.88;;;1.17;;
51814;SDS011;37874;53.158;6.766;2022-10-26T00:03:56;3.58;;;1.45;;
51814;SDS011;37874;53.158;6.766;2022-10-26T00:06:22;3.50;;;1.63;;
51814;SDS011;37874;53.158;6.766;2022-10-26T00:08:49;2.88;;;1.48;;
51814;SDS011;37874;53.158;6.766;2022-10-26T00:11:16;2.58;;;1.20;;
51814;SDS011;37874;53.158;6.766;2022-10-26T00:13:43;2.17;;;1.20;;
51814;SDS011;37874;53.158;6.766;2022-10-26T00:16:11;2.17;;;1.23;;
51814;SDS011;37874;53.158;6.766;2022-10-26T00:18:45;2.88;;;1.40;;
51814;SDS011;37874;53.158;6.766;2022-10-26T00:21:11;3.85;;;1.60;;
51814;SDS011;37874;53.158;6.766;2022-10-26T00:23:37;2.70;;;1.60;;
51814;SDS011;37874;53.158;6.766;2022-10-26T00:26:03;2.75;;;1.58;;
51814;SDS011;37874;53.158;6.766;2022-10-26T00:28:29;2.83;;;1.50;;
51814;SDS011;37874;53.158;6.766;2022-10-26T00:30:59;3.80;;;1.60;;
51814;SDS011;37874;53.158;6.766;2022-10-26T00:33:30;2.70;;;1.45;;
51814;SDS011;37874;53.158;6.766;2022-10-26T00:35:56;2.67;;;1.45;;
51814;SDS011;37874;53.158;6.766;2022-10-26T00:38:22;3.72;;;1.50;;
51814;SDS011;37874;53.158;6.766;2022-10-26T00:40:48;2.60;;;1.30;;
51814;SDS011;37874;53.158;6.766;2022-10-26T00:43:15;3.88;;;1.50;;
51814;SDS011;37874;53.158;6.766;2022-10-26T00:46:00;3.25;;;1.60;;
51814;SDS011;37874;53.158;6.766;2022-10-26T00:48:33;2.63;;;1.23;;
51814;SDS011;37874;53.158;6.766;2022-10-26T00:51:04;2.35;;;1.48;;
51814;SDS011;37874;53.158;6.766;2022-10-26T00:53:34;3.40;;;1.45;;
51814;SDS011;37874;53.158;6.766;2022-10-26T00:56:00;3.35;;;1.40;;
51814;SDS011;37874;53.158;6.766;2022-10-26T00:58:27;3.53;;;1.40;;
51814;SDS011;37874;53.158;6.766;2022-10-26T01:00:53;5.03;;;1.67;;
51814;SDS011;37874;53.158;6.766;2022-10-26T01:03:19;4.40;;;1.50;;
51814;SDS011;37874;53.158;6.766;2022-10-26T01:05:49;3.88;;;1.42;;
51814;SDS011;37874;53.158;6.766;2022-10-26T01:08:18;4.80;;;1.55;;
51814;SDS011;37874;53.158;6.766;2022-10-26T01:10:44;2.65;;;1.30;;
51814;SDS011;37874;53.158;6.766;2022-10-26T01:13:09;3.15;;;1.35;;
51814;SDS011;37874;53.158;6.766;2022-10-26T01:18:34;3.55;;;1.50;;
51814;SDS011;37874;53.158;6.766;2022-10-26T01:21:28;2.38;;;1.48;;
51814;SDS011;37874;53.158;6.766;2022-10-26T01:24:17;3.90;;;1.60;;
51814;SDS011;37874;53.158;6.766;2022-10-26T01:27:11;3.40;;;1.45;;
51814;SDS011;37874;53.158;6.766;2022-10-26T01:32:26;4.70;;;2.03;;
51814;SDS011;37874;53.158;6.766;2022-10-26T01:35:14;3.88;;;1.48;;
51814;SDS011;37874;53.158;6.766;2022-10-26T01:37:55;4.05;;;1.50;;
51814;SDS011;37874;53.158;6.766;2022-10-26T01:40:28;3.28;;;1.60;;
51814;SDS011;37874;53.158;6.766;2022-10-26T01:42:59;4.03;;;1.55;;
51814;SDS011;37874;53.158;6.766;2022-10-26T01:45:29;2.67;;;1.58;;
51814;SDS011;37874;53.158;6.766;2022-10-26T01:47:57;3.15;;;1.50;;
51814;SDS011;37874;53.158;6.766;2022-10-26T01:50:26;2.92;;;1.70;;
51814;SDS011;37874;53.158;6.766;2022-10-26T01:52:53;3.25;;;1.55;;
51814;SDS011;37874;53.158;6.766;2022-10-26T02:04:56;3.88;;;1.83;;
51814;SDS011;37874;53.158;6.766;2022-10-26T02:09:53;3.30;;;1.77;;
51814;SDS011;37874;53.158;6.766;2022-10-26T02:12:51;2.50;;;1.35;;
51814;SDS011;37874;53.158;6.766;2022-10-26T02:18:30;3.08;;;1.42;;
51814;SDS011;37874;53.158;6.766;2022-10-26T02:21:02;3.72;;;1.58;;
51814;SDS011;37874;53.158;6.766;2022-10-26T02:23:31;2.58;;;1.50;;
51814;SDS011;37874;53.158;6.766;2022-10-26T02:25:59;2.47;;;1.75;;
51814;SDS011;37874;53.158;6.766;2022-10-26T02:28:31;2.45;;;1.60;;
51814;SDS011;37874;53.158;6.766;2022-10-26T02:31:00;3.17;;;1.42;;
51814;SDS011;37874;53.158;6.766;2022-10-26T02:33:29;3.53;;;1.52;;
51814;SDS011;37874;53.158;6.766;2022-10-26T02:35:57;6.18;;;1.70;;
51814;SDS011;37874;53.158;6.766;2022-10-26T02:38:27;3.65;;;1.60;;
51814;SDS011;37874;53.158;6.766;2022-10-26T02:40:54;3.22;;;1.65;;
51814;SDS011;37874;53.158;6.766;2022-10-26T02:43:22;3.45;;;1.50;;
51814;SDS011;37874;53.158;6.766;2022-10-26T02:45:51;2.55;;;1.52;;
51814;SDS011;37874;53.158;6.766;2022-10-26T02:48:22;3.55;;;1.98;;
51814;SDS011;37874;53.158;6.766;2022-10-26T02:53:57;3.03;;;1.70;;
51814;SDS011;37874;53.158;6.766;2022-10-26T02:56:44;2.95;;;1.65;;
51814;SDS011;37874;53.158;6.766;2022-10-26T02:59:11;3.20;;;1.50;;
51814;SDS011;37874;53.158;6.766;2022-10-26T03:01:38;3.10;;;1.55;;
51814;SDS011;37874;53.158;6.766;2022-10-26T03:04:05;2.80;;;1.63;;
51814;SDS011;37874;53.158;6.766;2022-10-26T03:06:31;2.70;;;1.60;;
51814;SDS011;37874;53.158;6.766;2022-10-26T03:08:56;2.35;;;1.27;;
51814;SDS011;37874;53.158;6.766;2022-10-26T03:11:22;3.58;;;1.70;;
51814;SDS011;37874;53.158;6.766;2022-10-26T03:13:47;2.67;;;1.50;;
51814;SDS011;37874;53.158;6.766;2022-10-26T03:16:13;3.20;;;1.50;;
51814;SDS011;37874;53.158;6.766;2022-10-26T03:18:39;2.92;;;1.50;;
51814;SDS011;37874;53.158;6.766;2022-10-26T03:21:04;2.83;;;1.58;;
51814;SDS011;37874;53.158;6.766;2022-10-26T03:23:30;3.47;;;1.98;;
51814;SDS011;37874;53.158;6.766;2022-10-26T03:25:56;3.03;;;1.50;;
51814;SDS011;37874;53.158;6.766;2022-10-26T03:28:23;3.08;;;1.60;;
51814;SDS011;37874;53.158;6.766;2022-10-26T03:30:49;2.28;;;1.60;;
51814;SDS011;37874;53.158;6.766;2022-10-26T03:33:14;4.13;;;1.52;;
51814;SDS011;37874;53.158;6.766;2022-10-26T03:35:40;2.50;;;1.50;;
51814;SDS011;37874;53.158;6.766;2022-10-26T03:38:06;3.28;;;1.50;;
51814;SDS011;37874;53.158;6.766;2022-10-26T03:40:32;3.33;;;1.70;;
51814;SDS011;37874;53.158;6.766;2022-10-26T03:42:57;2.50;;;1.40;;
51814;SDS011;37874;53.158;6.766;2022-10-26T03:45:23;2.53;;;1.50;;
51814;SDS011;37874;53.158;6.766;2022-10-26T03:47:49;2.00;;;1.35;;
51814;SDS011;37874;53.158;6.766;2022-10-26T03:50:15;2.60;;;1.65;;
51814;SDS011;37874;53.158;6.766;2022-10-26T03:52:43;3.47;;;1.77;;
51814;SDS011;37874;53.158;6.766;2022-10-26T03:55:10;3.33;;;1.70;;
51814;SDS011;37874;53.158;6.766;2022-10-26T03:57:41;3.42;;;1.50;;
51814;SDS011;37874;53.158;6.766;2022-10-26T04:02:39;3.05;;;1.60;;
51814;SDS011;37874;53.158;6.766;2022-10-26T04:05:05;4.28;;;1.58;;
51814;SDS011;37874;53.158;6.766;2022-10-26T04:07:31;8.95;;;1.60;;
51814;SDS011;37874;53.158;6.766;2022-10-26T04:09:57;3.47;;;1.88;;
51814;SDS011;37874;53.158;6.766;2022-10-26T04:12:22;2.40;;;1.50;;
51814;SDS011;37874;53.158;6.766;2022-10-26T04:14:48;2.83;;;1.60;;
51814;SDS011;37874;53.158;6.766;2022-10-26T04:17:13;5.35;;;2.00;;
51814;SDS011;37874;53.158;6.766;2022-10-26T04:19:39;2.67;;;1.60;;
51814;SDS011;37874;53.158;6.766;2022-10-26T04:22:04;5.22;;;1.60;;
51814;SDS011;37874;53.158;6.766;2022-10-26T04:24:30;2.85;;;1.70;;
51814;SDS011;37874;53.158;6.766;2022-10-26T04:26:56;3.83;;;1.85;;
51814;SDS011;37874;53.158;6.766;2022-10-26T04:29:21;2.70;;;1.55;;
51814;SDS011;37874;53.158;6.766;2022-10-26T04:31:50;3.42;;;1.58;;
51814;SDS011;37874;53.158;6.766;2022-10-26T04:34:15;4.90;;;1.90;;
51814;SDS011;37874;53.158;6.766;2022-10-26T04:36:41;3.70;;;1.80;;
51814;SDS011;37874;53.158;6.766;2022-10-26T04:39:06;3.85;;;1.65;;
51814;SDS011;37874;53.158;6.766;2022-10-26T04:41:32;3.08;;;1.50;;
51814;SDS011;37874;53.158;6.766;2022-10-26T04:43:58;2.60;;;1.67;;
51814;SDS011;37874;53.158;6.766;2022-10-26T04:46:23;3.47;;;2.03;;
51814;SDS011;37874;53.158;6.766;2022-10-26T04:48:49;3.35;;;1.70;;
51814;SDS011;37874;53.158;6.766;2022-10-26T04:51:14;3.17;;;2.00;;
51814;SDS011;37874;53.158;6.766;2022-10-26T04:53:40;3.83;;;2.08;;
51814;SDS011;37874;53.158;6.766;2022-10-26T04:56:06;3.53;;;2.20;;
51814;SDS011;37874;53.158;6.766;2022-10-26T04:58:32;3.92;;;2.30;;
51814;SDS011;37874;53.158;6.766;2022-10-26T05:00:59;3.88;;;2.28;;
51814;SDS011;37874;53.158;6.766;2022-10-26T05:03:26;4.70;;;2.40;;
51814;SDS011;37874;53.158;6.766;2022-10-26T05:05:51;4.43;;;2.67;;
51814;SDS011;37874;53.158;6.766;2022-10-26T05:08:17;4.25;;;2.70;;
51814;SDS011;37874;53.158;6.766;2022-10-26T05:10:46;5.70;;;2.72;;
51814;SDS011;37874;53.158;6.766;2022-10-26T05:13:12;5.55;;;3.00;;
51814;SDS011;37874;53.158;6.766;2022-10-26T05:15:38;5.45;;;3.42;;
51814;SDS011;37874;53.158;6.766;2022-10-26T05:18:04;5.60;;;3.67;;
51814;SDS011;37874;53.158;6.766;2022-10-26T05:20:31;9.07;;;5.05;;
51814;SDS011;37874;53.158;6.766;2022-10-26T05:22:58;6.55;;;4.25;;
51814;SDS011;37874;53.158;6.766;2022-10-26T05:25:25;8.50;;;4.75;;
51814;SDS011;37874;53.158;6.766;2022-10-26T05:28:02;5.40;;;4.13;;
51814;SDS011;37874;53.158;6.766;2022-10-26T05:30:30;8.35;;;4.45;;
51814;SDS011;37874;53.158;6.766;2022-10-26T05:32:56;8.88;;;4.72;;
51814;SDS011;37874;53.158;6.766;2022-10-26T05:35:23;9.23;;;4.57;;
51814;SDS011;37874;53.158;6.766;2022-10-26T05:37:50;7.97;;;4.15;;
51814;SDS011;37874;53.158;6.766;2022-10-26T05:40:15;7.30;;;4.60;;
51814;SDS011;37874;53.158;6.766;2022-10-26T05:42:42;7.85;;;4.35;;
51814;SDS011;37874;53.158;6.766;2022-10-26T05:45:08;7.68;;;4.72;;
51814;SDS011;37874;53.158;6.766;2022-10-26T05:47:37;7.75;;;4.22;;
51814;SDS011;37874;53.158;6.766;2022-10-26T05:50:04;9.00;;;4.60;;
51814;SDS011;37874;53.158;6.766;2022-10-26T05:52:30;9.10;;;4.40;;
51814;SDS011;37874;53.158;6.766;2022-10-26T05:55:02;8.27;;;3.90;;
51814;SDS011;37874;53.158;6.766;2022-10-26T05:57:27;7.28;;;4.35;;
51814;SDS011;37874;53.158;6.766;2022-10-26T05:59:53;6.72;;;4.25;;
51814;SDS011;37874;53.158;6.766;2022-10-26T06:04:50;6.90;;;4.00;;
51814;SDS011;37874;53.158;6.766;2022-10-26T06:07:19;7.20;;;3.63;;
51814;SDS011;37874;53.158;6.766;2022-10-26T06:09:45;6.65;;;3.55;;
51814;SDS011;37874;53.158;6.766;2022-10-26T06:12:11;6.05;;;3.67;;
51814;SDS011;37874;53.158;6.766;2022-10-26T06:14:38;6.82;;;3.75;;
51814;SDS011;37874;53.158;6.766;2022-10-26T06:17:08;7.30;;;3.70;;
51814;SDS011;37874;53.158;6.766;2022-10-26T06:25:17;7.88;;;3.35;;
51814;SDS011;37874;53.158;6.766;2022-10-26T06:28:17;6.63;;;3.55;;
51814;SDS011;37874;53.158;6.766;2022-10-26T06:31:11;9.07;;;3.58;;
51814;SDS011;37874;53.158;6.766;2022-10-26T06:33:38;6.90;;;3.72;;
51814;SDS011;37874;53.158;6.766;2022-10-26T06:36:07;6.03;;;3.45;;
51814;SDS011;37874;53.158;6.766;2022-10-26T06:38:40;5.13;;;3.38;;
51814;SDS011;37874;53.158;6.766;2022-10-26T06:41:09;7.80;;;3.67;;
51814;SDS011;37874;53.158;6.766;2022-10-26T06:43:39;7.53;;;3.67;;
51814;SDS011;37874;53.158;6.766;2022-10-26T06:51:45;8.75;;;2.72;;
51814;SDS011;37874;53.158;6.766;2022-10-26T06:54:33;11.45;;;3.40;;
51814;SDS011;37874;53.158;6.766;2022-10-26T06:57:11;6.85;;;3.13;;
51814;SDS011;37874;53.158;6.766;2022-10-26T06:59:40;11.88;;;4.38;;
51814;SDS011;37874;53.158;6.766;2022-10-26T07:02:12;8.90;;;3.15;;
51814;SDS011;37874;53.158;6.766;2022-10-26T07:04:41;9.18;;;3.33;;
51814;SDS011;37874;53.158;6.766;2022-10-26T07:07:10;7.43;;;3.20;;
51814;SDS011;37874;53.158;6.766;2022-10-26T07:09:37;6.90;;;3.08;;
51814;SDS011;37874;53.158;6.766;2022-10-26T07:12:03;6.70;;;3.20;;
51814;SDS011;37874;53.158;6.766;2022-10-26T07:14:29;6.97;;;3.03;;
51814;SDS011;37874;53.158;6.766;2022-10-26T07:16:54;8.32;;;3.25;;
51814;SDS011;37874;53.158;6.766;2022-10-26T07:19:21;6.78;;;2.97;;
51814;SDS011;37874;53.158;6.766;2022-10-26T07:21:47;6.03;;;2.83;;
51814;SDS011;37874;53.158;6.766;2022-10-26T07:24:13;6.05;;;2.80;;
51814;SDS011;37874;53.158;6.766;2022-10-26T07:26:38;5.97;;;2.75;;
51814;SDS011;37874;53.158;6.766;2022-10-26T07:29:04;7.72;;;3.15;;
51814;SDS011;37874;53.158;6.766;2022-10-26T07:31:30;5.97;;;2.80;;
51814;SDS011;37874;53.158;6.766;2022-10-26T07:33:56;5.55;;;2.83;;
51814;SDS011;37874;53.158;6.766;2022-10-26T07:36:21;6.30;;;2.42;;
51814;SDS011;37874;53.158;6.766;2022-10-26T07:38:50;7.25;;;2.60;;
51814;SDS011;37874;53.158;6.766;2022-10-26T07:41:16;6.05;;;2.63;;
51814;SDS011;37874;53.158;6.766;2022-10-26T07:43:42;4.63;;;2.30;;
51814;SDS011;37874;53.158;6.766;2022-10-26T07:46:10;5.97;;;2.78;;
51814;SDS011;37874;53.158;6.766;2022-10-26T07:48:36;5.10;;;2.40;;
51814;SDS011;37874;53.158;6.766;2022-10-26T07:51:03;5.45;;;2.55;;
51814;SDS011;37874;53.158;6.766;2022-10-26T07:53:29;4.43;;;2.42;;
51814;SDS011;37874;53.158;6.766;2022-10-26T07:55:55;3.50;;;2.03;;
51814;SDS011;37874;53.158;6.766;2022-10-26T07:58:21;4.70;;;2.45;;
51814;SDS011;37874;53.158;6.766;2022-10-26T08:00:50;5.45;;;2.50;;
51814;SDS011;37874;53.158;6.766;2022-10-26T08:03:16;4.82;;;2.22;;
51814;SDS011;37874;53.158;6.766;2022-10-26T08:05:44;4.00;;;1.90;;
51814;SDS011;37874;53.158;6.766;2022-10-26T08:08:11;5.22;;;2.40;;
51814;SDS011;37874;53.158;6.766;2022-10-26T08:10:41;4.20;;;1.98;;
51814;SDS011;37874;53.158;6.766;2022-10-26T08:13:08;4.22;;;2.00;;
51814;SDS011;37874;53.158;6.766;2022-10-26T08:15:33;4.80;;;2.17;;
51814;SDS011;37874;53.158;6.766;2022-10-26T08:17:59;5.47;;;2.00;;
51814;SDS011;37874;53.158;6.766;2022-10-26T08:20:25;3.67;;;2.05;;
51814;SDS011;37874;53.158;6.766;2022-10-26T08:22:50;5.55;;;2.00;;
51814;SDS011;37874;53.158;6.766;2022-10-26T08:25:17;5.10;;;2.05;;
51814;SDS011;37874;53.158;6.766;2022-10-26T08:27:43;3.97;;;1.65;;
51814;SDS011;37874;53.158;6.766;2022-10-26T08:30:08;4.00;;;1.58;;
51814;SDS011;37874;53.158;6.766;2022-10-26T08:32:34;3.72;;;1.77;;
51814;SDS011;37874;53.158;6.766;2022-10-26T08:35:00;3.60;;;1.73;;
51814;SDS011;37874;53.158;6.766;2022-10-26T08:37:26;2.97;;;1.75;;
51814;SDS011;37874;53.158;6.766;2022-10-26T08:39:51;6.07;;;1.80;;
51814;SDS011;37874;53.158;6.766;2022-10-26T08:42:18;3.88;;;1.67;;
51814;SDS011;37874;53.158;6.766;2022-10-26T08:44:52;5.55;;;1.65;;
51814;SDS011;37874;53.158;6.766;2022-10-26T08:47:30;2.95;;;1.35;;
51814;SDS011;37874;53.158;6.766;2022-10-26T08:50:09;3.33;;;1.50;;
51814;SDS011;37874;53.158;6.766;2022-10-26T08:55:14;5.53;;;1.67;;
51814;SDS011;37874;53.158;6.766;2022-10-26T08:57:44;3.30;;;1.50;;
51814;SDS011;37874;53.158;6.766;2022-10-26T09:00:16;3.03;;;1.42;;
51814;SDS011;37874;53.158;6.766;2022-10-26T09:02:48;3.30;;;1.38;;
51814;SDS011;37874;53.158;6.766;2022-10-26T09:05:20;2.50;;;1.35;;
51814;SDS011;37874;53.158;6.766;2022-10-26T09:07:53;3.10;;;1.30;;
51814;SDS011;37874;53.158;6.766;2022-10-26T09:13:31;3.95;;;1.48;;
51814;SDS011;37874;53.158;6.766;2022-10-26T09:21:14;3.92;;;1.50;;
51814;SDS011;37874;53.158;6.766;2022-10-26T09:24:01;2.80;;;1.33;;
51814;SDS011;37874;53.158;6.766;2022-10-26T09:26:36;3.30;;;1.20;;
51814;SDS011;37874;53.158;6.766;2022-10-26T09:29:18;2.90;;;1.30;;
51814;SDS011;37874;53.158;6.766;2022-10-26T09:31:55;2.42;;;1.10;;
51814;SDS011;37874;53.158;6.766;2022-10-26T09:34:33;2.95;;;1.30;;
51814;SDS011;37874;53.158;6.766;2022-10-26T09:37:12;2.63;;;1.17;;
51814;SDS011;37874;53.158;6.766;2022-10-26T09:39:45;4.35;;;1.25;;
51814;SDS011;37874;53.158;6.766;2022-10-26T09:42:35;3.45;;;1.20;;
51814;SDS011;37874;53.158;6.766;2022-10-26T09:45:51;3.65;;;1.20;;
51814;SDS011;37874;53.158;6.766;2022-10-26T09:47:55;2.83;;;1.30;;
51814;SDS011;37874;53.158;6.766;2022-10-26T09:50:41;5.45;;;1.42;;
51814;SDS011;37874;53.158;6.766;2022-10-26T09:53:11;2.85;;;1.40;;
51814;SDS011;37874;53.158;6.766;2022-10-26T09:55:38;2.75;;;1.40;;
51814;SDS011;37874;53.158;6.766;2022-10-26T09:58:12;2.80;;;1.20;;
51814;SDS011;37874;53.158;6.766;2022-10-26T10:00:48;2.47;;;1.23;;
51814;SDS011;37874;53.158;6.766;2022-10-26T10:03:16;2.15;;;1.00;;
51814;SDS011;37874;53.158;6.766;2022-10-26T10:05:43;5.20;;;1.38;;
51814;SDS011;37874;53.158;6.766;2022-10-26T10:10:57;3.00;;;1.20;;
51814;SDS011;37874;53.158;6.766;2022-10-26T10:13:40;3.30;;;1.30;;
51814;SDS011;37874;53.158;6.766;2022-10-26T10:16:09;3.53;;;0.98;;
51814;SDS011;37874;53.158;6.766;2022-10-26T10:18:35;2.13;;;1.00;;
51814;SDS011;37874;53.158;6.766;2022-10-26T10:21:03;3.25;;;1.42;;
51814;SDS011;37874;53.158;6.766;2022-10-26T10:26:01;3.15;;;0.90;;
51814;SDS011;37874;53.158;6.766;2022-10-26T10:28:36;3.45;;;1.13;;
51814;SDS011;37874;53.158;6.766;2022-10-26T10:31:05;2.75;;;1.23;;
51814;SDS011;37874;53.158;6.766;2022-10-26T10:33:45;3.03;;;1.13;;
51814;SDS011;37874;53.158;6.766;2022-10-26T10:36:14;3.85;;;1.20;;
51814;SDS011;37874;53.158;6.766;2022-10-26T10:38:43;4.25;;;1.08;;
51814;SDS011;37874;53.158;6.766;2022-10-26T10:41:15;4.45;;;1.20;;
51814;SDS011;37874;53.158;6.766;2022-10-26T10:43:51;3.30;;;1.30;;
51814;SDS011;37874;53.158;6.766;2022-10-26T10:46:29;4.20;;;1.20;;
51814;SDS011;37874;53.158;6.766;2022-10-26T10:49:03;4.40;;;1.58;;
51814;SDS011;37874;53.158;6.766;2022-10-26T10:51:39;5.32;;;1.20;;
51814;SDS011;37874;53.158;6.766;2022-10-26T10:56:50;3.40;;;1.42;;
51814;SDS011;37874;53.158;6.766;2022-10-26T10:59:29;7.78;;;1.30;;
51814;SDS011;37874;53.158;6.766;2022-10-26T11:08:15;3.40;;;1.23;;
51814;SDS011;37874;53.158;6.766;2022-10-26T11:10:46;5.10;;;1.60;;
51814;SDS011;37874;53.158;6.766;2022-10-26T11:13:26;3.55;;;1.25;;
51814;SDS011;37874;53.158;6.766;2022-10-26T11:15:59;4.15;;;1.70;;
51814;SDS011;37874;53.158;6.766;2022-10-26T11:18:33;4.90;;;1.27;;
51814;SDS011;37874;53.158;6.766;2022-10-26T11:23:37;2.60;;;1.23;;
51814;SDS011;37874;53.158;6.766;2022-10-26T11:26:14;5.18;;;1.50;;
51814;SDS011;37874;53.158;6.766;2022-10-26T11:31:27;5.57;;;1.55;;
51814;SDS011;37874;53.158;6.766;2022-10-26T11:34:04;3.90;;;1.67;;
51814;SDS011;37874;53.158;6.766;2022-10-26T11:36:53;5.15;;;1.23;;
51814;SDS011;37874;53.158;6.766;2022-10-26T11:39:44;4.18;;;1.45;;
51814;SDS011;37874;53.158;6.766;2022-10-26T11:42:21;3.78;;;1.77;;
51814;SDS011;37874;53.158;6.766;2022-10-26T11:45:00;2.88;;;1.30;;
51814;SDS011;37874;53.158;6.766;2022-10-26T11:47:45;4.20;;;1.55;;
51814;SDS011;37874;53.158;6.766;2022-10-26T11:50:20;4.38;;;1.67;;
51814;SDS011;37874;53.158;6.766;2022-10-26T11:52:54;4.55;;;1.60;;
51814;SDS011;37874;53.158;6.766;2022-10-26T11:55:42;4.50;;;1.45;;
51814;SDS011;37874;53.158;6.766;2022-10-26T11:58:21;3.22;;;1.35;;
51814;SDS011;37874;53.158;6.766;2022-10-26T12:00:50;3.40;;;1.65;;
51814;SDS011;37874;53.158;6.766;2022-10-26T12:03:29;4.13;;;1.55;;
51814;SDS011;37874;53.158;6.766;2022-10-26T12:05:59;4.40;;;1.67;;
51814;SDS011;37874;53.158;6.766;2022-10-26T12:08:30;3.25;;;1.40;;
51814;SDS011;37874;53.158;6.766;2022-10-26T12:11:12;3.78;;;1.48;;
51814;SDS011;37874;53.158;6.766;2022-10-26T12:19:42;3.97;;;1.55;;
51814;SDS011;37874;53.158;6.766;2022-10-26T12:22:12;2.50;;;1.20;;
51814;SDS011;37874;53.158;6.766;2022-10-26T12:24:46;5.55;;;1.75;;
51814;SDS011;37874;53.158;6.766;2022-10-26T12:35:27;3.72;;;1.23;;
51814;SDS011;37874;53.158;6.766;2022-10-26T12:37:59;4.47;;;1.40;;
51814;SDS011;37874;53.158;6.766;2022-10-26T12:43:31;4.95;;;1.55;;
51814;SDS011;37874;53.158;6.766;2022-10-26T12:45:46;9.02;;;1.80;;
51814;SDS011;37874;53.158;6.766;2022-10-26T12:48:46;3.30;;;1.48;;
51814;SDS011;37874;53.158;6.766;2022-10-26T12:53:58;3.72;;;1.30;;
51814;SDS011;37874;53.158;6.766;2022-10-26T12:56:50;4.03;;;1.45;;
51814;SDS011;37874;53.158;6.766;2022-10-26T13:05:18;4.07;;;1.30;;
51814;SDS011;37874;53.158;6.766;2022-10-26T13:08:21;6.00;;;1.25;;
51814;SDS011;37874;53.158;6.766;2022-10-26T13:11:01;4.22;;;1.40;;
51814;SDS011;37874;53.158;6.766;2022-10-26T13:13:29;2.55;;;1.23;;
51814;SDS011;37874;53.158;6.766;2022-10-26T13:15:56;3.25;;;1.25;;
51814;SDS011;37874;53.158;6.766;2022-10-26T13:18:23;4.05;;;1.52;;
51814;SDS011;37874;53.158;6.766;2022-10-26T13:21:39;3.08;;;1.27;;
51814;SDS011;37874;53.158;6.766;2022-10-26T13:23:44;3.80;;;1.65;;
51814;SDS011;37874;53.158;6.766;2022-10-26T13:26:12;3.92;;;1.20;;
51814;SDS011;37874;53.158;6.766;2022-10-26T13:31:04;4.20;;;1.50;;
51814;SDS011;37874;53.158;6.766;2022-10-26T13:33:39;3.50;;;1.35;;
51814;SDS011;37874;53.158;6.766;2022-10-26T13:36:14;3.13;;;1.30;;
51814;SDS011;37874;53.158;6.766;2022-10-26T13:38:50;5.32;;;1.52;;
51814;SDS011;37874;53.158;6.766;2022-10-26T13:41:18;3.47;;;1.20;;
51814;SDS011;37874;53.158;6.766;2022-10-26T13:43:57;2.88;;;1.08;;
51814;SDS011;37874;53.158;6.766;2022-10-26T13:46:27;3.60;;;1.20;;
51814;SDS011;37874;53.158;6.766;2022-10-26T13:49:02;4.88;;;1.45;;
51814;SDS011;37874;53.158;6.766;2022-10-26T13:59:41;2.95;;;1.20;;
51814;SDS011;37874;53.158;6.766;2022-10-26T14:02:21;3.63;;;1.30;;
51814;SDS011;37874;53.158;6.766;2022-10-26T14:04:52;3.63;;;1.30;;
51814;SDS011;37874;53.158;6.766;2022-10-26T14:07:24;3.78;;;1.27;;
51814;SDS011;37874;53.158;6.766;2022-10-26T14:10:34;3.15;;;1.38;;
51814;SDS011;37874;53.158;6.766;2022-10-26T14:13:06;5.18;;;1.73;;
51814;SDS011;37874;53.158;6.766;2022-10-26T14:15:33;3.50;;;1.38;;
51814;SDS011;37874;53.158;6.766;2022-10-26T14:18:01;3.38;;;1.27;;
51814;SDS011;37874;53.158;6.766;2022-10-26T14:20:29;3.33;;;1.23;;
51814;SDS011;37874;53.158;6.766;2022-10-26T14:22:56;2.55;;;1.17;;
51814;SDS011;37874;53.158;6.766;2022-10-26T14:25:25;4.18;;;1.20;;
51814;SDS011;37874;53.158;6.766;2022-10-26T14:27:53;3.50;;;1.30;;
51814;SDS011;37874;53.158;6.766;2022-10-26T14:32:48;4.68;;;1.20;;
51814;SDS011;37874;53.158;6.766;2022-10-26T14:35:14;4.05;;;1.30;;
51814;SDS011;37874;53.158;6.766;2022-10-26T14:37:54;6.32;;;1.52;;
51814;SDS011;37874;53.158;6.766;2022-10-26T14:40:24;3.97;;;1.38;;
51814;SDS011;37874;53.158;6.766;2022-10-26T14:42:53;3.60;;;1.20;;
51814;SDS011;37874;53.158;6.766;2022-10-26T14:47:58;3.00;;;1.30;;
51814;SDS011;37874;53.158;6.766;2022-10-26T14:50:25;4.35;;;1.40;;
51814;SDS011;37874;53.158;6.766;2022-10-26T14:52:56;3.13;;;1.30;;
51814;SDS011;37874;53.158;6.766;2022-10-26T14:55:25;3.88;;;1.65;;
51814;SDS011;37874;53.158;6.766;2022-10-26T14:57:52;3.42;;;1.40;;
51814;SDS011;37874;53.158;6.766;2022-10-26T15:00:32;2.92;;;1.40;;
51814;SDS011;37874;53.158;6.766;2022-10-26T15:02:58;6.28;;;1.30;;
51814;SDS011;37874;53.158;6.766;2022-10-26T15:05:28;3.63;;;1.30;;
51814;SDS011;37874;53.158;6.766;2022-10-26T15:07:57;3.13;;;1.40;;
51814;SDS011;37874;53.158;6.766;2022-10-26T15:13:22;3.17;;;1.30;;
51814;SDS011;37874;53.158;6.766;2022-10-26T15:15:53;4.85;;;1.33;;
51814;SDS011;37874;53.158;6.766;2022-10-26T15:18:23;2.92;;;1.20;;
51814;SDS011;37874;53.158;6.766;2022-10-26T15:20:51;3.78;;;1.30;;
51814;SDS011;37874;53.158;6.766;2022-10-26T15:23:18;4.10;;;1.30;;
51814;SDS011;37874;53.158;6.766;2022-10-26T15:25:52;3.22;;;1.30;;
51814;SDS011;37874;53.158;6.766;2022-10-26T15:31:00;4.22;;;1.90;;
51814;SDS011;37874;53.158;6.766;2022-10-26T15:36:17;5.03;;;2.47;;
51814;SDS011;37874;53.158;6.766;2022-10-26T15:38:44;4.28;;;2.17;;
51814;SDS011;37874;53.158;6.766;2022-10-26T15:41:13;6.75;;;4.10;;
51814;SDS011;37874;53.158;6.766;2022-10-26T15:43:50;8.90;;;5.47;;
51814;SDS011;37874;53.158;6.766;2022-10-26T15:46:17;18.13;;;11.10;;
51814;SDS011;37874;53.158;6.766;2022-10-26T15:48:45;19.38;;;13.13;;
51814;SDS011;37874;53.158;6.766;2022-10-26T15:51:23;21.05;;;12.13;;
51814;SDS011;37874;53.158;6.766;2022-10-26T15:53:49;17.63;;;9.18;;
51814;SDS011;37874;53.158;6.766;2022-10-26T15:56:19;16.13;;;8.90;;
51814;SDS011;37874;53.158;6.766;2022-10-26T15:58:50;13.23;;;8.25;;
51814;SDS011;37874;53.158;6.766;2022-10-26T16:01:18;16.92;;;8.93;;
51814;SDS011;37874;53.158;6.766;2022-10-26T16:03:48;12.00;;;7.35;;
51814;SDS011;37874;53.158;6.766;2022-10-26T16:06:15;11.35;;;6.70;;
51814;SDS011;37874;53.158;6.766;2022-10-26T16:08:58;10.43;;;5.50;;
51814;SDS011;37874;53.158;6.766;2022-10-26T16:11:26;10.73;;;5.22;;
51814;SDS011;37874;53.158;6.766;2022-10-26T16:13:52;9.18;;;4.43;;
51814;SDS011;37874;53.158;6.766;2022-10-26T16:16:18;7.45;;;3.85;;
51814;SDS011;37874;53.158;6.766;2022-10-26T16:18:44;7.68;;;3.53;;
51814;SDS011;37874;53.158;6.766;2022-10-26T16:21:11;5.93;;;3.45;;
51814;SDS011;37874;53.158;6.766;2022-10-26T16:23:37;6.93;;;3.40;;
51814;SDS011;37874;53.158;6.766;2022-10-26T16:26:06;7.80;;;3.70;;
51814;SDS011;37874;53.158;6.766;2022-10-26T16:28:32;6.55;;;3.53;;
51814;SDS011;37874;53.158;6.766;2022-10-26T16:30:59;11.30;;;3.85;;
51814;SDS011;37874;53.158;6.766;2022-10-26T16:33:25;7.22;;;3.50;;
51814;SDS011;37874;53.158;6.766;2022-10-26T16:35:57;6.18;;;3.33;;
51814;SDS011;37874;53.158;6.766;2022-10-26T16:38:24;8.02;;;3.88;;
51814;SDS011;37874;53.158;6.766;2022-10-26T16:40:59;6.15;;;3.53;;
51814;SDS011;37874;53.158;6.766;2022-10-26T16:43:29;6.93;;;3.42;;
51814;SDS011;37874;53.158;6.766;2022-10-26T16:45:58;7.35;;;3.80;;
51814;SDS011;37874;53.158;6.766;2022-10-26T16:48:24;8.88;;;3.97;;
51814;SDS011;37874;53.158;6.766;2022-10-26T16:50:49;7.43;;;3.50;;
51814;SDS011;37874;53.158;6.766;2022-10-26T16:53:15;7.47;;;3.25;;
51814;SDS011;37874;53.158;6.766;2022-10-26T16:55:41;6.32;;;3.22;;
51814;SDS011;37874;53.158;6.766;2022-10-26T16:58:08;7.78;;;3.20;;
51814;SDS011;37874;53.158;6.766;2022-10-26T17:00:34;5.95;;;3.03;;
51814;SDS011;37874;53.158;6.766;2022-10-26T17:03:01;6.57;;;3.30;;
51814;SDS011;37874;53.158;6.766;2022-10-26T17:05:27;5.93;;;3.17;;
51814;SDS011;37874;53.158;6.766;2022-10-26T17:07:53;6.53;;;2.47;;